createdAt,value
2016-07-25T00:00:55.819Z,1010.22
2016-07-25T00:01:55.812Z,1010.23
2016-07-25T00:02:55.804Z,1010.2
2016-07-25T00:03:55.797Z,1010.19
2016-07-25T00:04:55.792Z,1010.19
2016-07-25T00:05:55.785Z,1010.22
2016-07-25T00:06:55.777Z,1010.19
2016-07-25T00:07:55.770Z,1010.19
2016-07-25T00:08:55.764Z,1010.22
2016-07-25T00:09:55.756Z,1010.17
2016-07-25T00:10:55.748Z,1010.17
2016-07-25T00:11:55.743Z,1010.24
2016-07-25T00:12:55.735Z,1010.26
2016-07-25T00:13:55.727Z,1010.23
2016-07-25T00:14:55.720Z,1010.21
2016-07-25T00:15:55.715Z,1010.2
2016-07-25T00:16:55.707Z,1010.21
2016-07-25T00:17:55.703Z,1010.2
2016-07-25T00:18:55.694Z,1010.18
2016-07-25T00:19:55.685Z,1010.2
2016-07-25T00:20:55.682Z,1010.17
2016-07-25T00:21:55.675Z,1010.16
2016-07-25T00:22:55.666Z,1010.14
2016-07-25T00:23:55.659Z,1010.15
2016-07-25T00:24:55.651Z,1010.13
2016-07-25T00:25:55.645Z,1010.16
2016-07-25T00:26:55.638Z,1010.14
2016-07-25T00:27:55.631Z,1010.14
2016-07-25T00:28:55.626Z,1010.14
2016-07-25T00:29:55.616Z,1010.16
2016-07-25T00:30:55.609Z,1010.13
2016-07-25T00:31:55.601Z,1010.12
2016-07-25T00:32:55.594Z,1010.1
2016-07-25T00:33:55.586Z,1010.12
2016-07-25T00:34:55.579Z,1010.1
2016-07-25T00:35:55.572Z,1010.1
2016-07-25T00:36:55.563Z,1010.1
2016-07-25T00:37:55.557Z,1010.12
2016-07-25T00:38:55.551Z,1010.13
2016-07-25T00:39:55.543Z,1010.13
2016-07-25T00:40:55.537Z,1010.11
2016-07-25T00:41:55.527Z,1010.15
2016-07-25T00:42:55.522Z,1010.16
2016-07-25T00:43:55.716Z,1010.15
2016-07-25T00:44:55.509Z,1010.16
2016-07-25T00:45:55.501Z,1010.14
2016-07-25T00:46:55.496Z,1010.15
2016-07-25T00:47:55.485Z,1010.16
2016-07-25T00:48:55.480Z,1010.19
2016-07-25T00:49:55.472Z,1010.19
2016-07-25T00:50:55.465Z,1010.19
2016-07-25T00:51:55.458Z,1010.17
2016-07-25T00:52:55.452Z,1010.13
2016-07-25T00:53:55.441Z,1010.17
2016-07-25T00:54:55.436Z,1010.17
2016-07-25T00:55:55.430Z,1010.13
2016-07-25T00:56:55.422Z,1010.18
2016-07-25T00:57:55.412Z,1010.18
2016-07-25T00:58:55.405Z,1010.15
2016-07-25T00:59:55.398Z,1010.15
2016-07-25T01:00:55.391Z,1010.17
2016-07-25T01:01:55.384Z,1010.13
2016-07-25T01:02:55.376Z,1010.16
2016-07-25T01:03:55.368Z,1010.14
2016-07-25T01:04:55.362Z,1010.13
2016-07-25T01:05:55.354Z,1010.18
2016-07-25T01:06:55.348Z,1010.15
2016-07-25T01:07:55.341Z,1010.14
2016-07-25T01:08:55.333Z,1010.16
2016-07-25T01:09:55.324Z,1010.14
2016-07-25T01:10:55.320Z,1010.17
2016-07-25T01:11:55.308Z,1010.2
2016-07-25T01:12:55.304Z,1010.22
2016-07-25T01:13:55.296Z,1010.22
2016-07-25T01:14:55.291Z,1010.19
2016-07-25T01:15:55.283Z,1010.18
2016-07-25T01:16:55.275Z,1010.17
2016-07-25T01:17:55.267Z,1010.19
2016-07-25T01:18:55.261Z,1010.19
2016-07-25T01:19:55.255Z,1010.19
2016-07-25T01:20:55.247Z,1010.22
2016-07-25T01:21:55.239Z,1010.21
2016-07-25T01:22:55.234Z,1010.23
2016-07-25T01:23:55.226Z,1010.27
2016-07-25T01:24:55.217Z,1010.24
2016-07-25T01:25:55.209Z,1010.25
2016-07-25T01:26:55.202Z,1010.25
2016-07-25T01:27:55.195Z,1010.24
2016-07-25T01:28:55.187Z,1010.21
2016-07-25T01:29:55.180Z,1010.23
2016-07-25T01:30:55.171Z,1010.23
2016-07-25T01:31:55.164Z,1010.19
2016-07-25T01:32:55.159Z,1010.2
2016-07-25T01:33:55.150Z,1010.17
2016-07-25T01:34:55.150Z,1010.18
2016-07-25T01:35:55.136Z,1010.18
2016-07-25T01:36:55.128Z,1010.18
2016-07-25T01:37:55.121Z,1010.16
2016-07-25T01:38:55.113Z,1010.15
2016-07-25T01:39:55.108Z,1010.16
2016-07-25T01:40:55.099Z,1010.17
2016-07-25T01:41:55.092Z,1010.15
2016-07-25T01:42:55.093Z,1010.18
2016-07-25T01:43:55.083Z,1010.17
2016-07-25T01:44:55.069Z,1010.17
2016-07-25T01:45:55.066Z,1010.2
2016-07-25T01:46:55.057Z,1010.19
2016-07-25T01:47:55.049Z,1010.21
2016-07-25T01:48:55.040Z,1010.23
2016-07-25T01:49:55.034Z,1010.21
2016-07-25T01:50:55.026Z,1010.22
2016-07-25T01:51:55.017Z,1010.19
2016-07-25T01:52:55.010Z,1010.19
2016-07-25T01:53:55.003Z,1010.19
2016-07-25T01:54:54.996Z,1010.19
2016-07-25T01:55:54.988Z,1010.21
2016-07-25T01:56:54.979Z,1010.21
2016-07-25T01:57:54.974Z,1010.19
2016-07-25T01:58:54.967Z,1010.23
2016-07-25T01:59:54.958Z,1010.24
2016-07-25T02:00:54.950Z,1010.21
2016-07-25T02:01:54.944Z,1010.26
2016-07-25T02:02:54.936Z,1010.25
2016-07-25T02:03:54.928Z,1010.24
2016-07-25T02:04:54.921Z,1010.24
2016-07-25T02:05:54.915Z,1010.21
2016-07-25T02:06:54.906Z,1010.24
2016-07-25T02:07:54.898Z,1010.19
2016-07-25T02:08:54.892Z,1010.19
2016-07-25T02:09:54.885Z,1010.2
2016-07-25T02:10:54.877Z,1010.15
2016-07-25T02:11:54.869Z,1010.2
2016-07-25T02:12:54.861Z,1010.15
2016-07-25T02:13:54.855Z,1010.16
2016-07-25T02:14:54.850Z,1010.17
2016-07-25T02:15:54.847Z,1010.18
2016-07-25T02:16:54.831Z,1010.2
2016-07-25T02:17:54.824Z,1010.18
2016-07-25T02:18:54.818Z,1010.19
2016-07-25T02:19:54.810Z,1010.17
2016-07-25T02:20:54.802Z,1010.17
2016-07-25T02:21:54.794Z,1010.13
2016-07-25T02:22:54.787Z,1010.14
2016-07-25T02:23:54.780Z,1010.1
2016-07-25T02:24:54.774Z,1010.08
2016-07-25T02:25:54.766Z,1010.04
2016-07-25T02:26:54.759Z,1010.02
2016-07-25T02:27:54.753Z,1010.04
2016-07-25T02:28:54.744Z,1010.06
2016-07-25T02:29:54.737Z,1010.07
2016-07-25T02:30:54.728Z,1010.09
2016-07-25T02:31:54.721Z,1010.05
2016-07-25T02:32:54.721Z,1010.05
2016-07-25T02:33:54.706Z,1010.08
2016-07-25T02:34:54.700Z,1010.07
2016-07-25T02:35:54.693Z,1010.07
2016-07-25T02:36:54.684Z,1010.08
2016-07-25T02:37:54.677Z,1010.12
2016-07-25T02:38:54.670Z,1010.08
2016-07-25T02:39:54.665Z,1010.08
2016-07-25T02:40:54.658Z,1010.04
2016-07-25T02:41:54.649Z,1010.07
2016-07-25T02:42:54.639Z,1010.05
2016-07-25T02:43:54.834Z,1010.04
2016-07-25T02:44:54.625Z,1010.06
2016-07-25T02:45:54.617Z,1010.02
2016-07-25T02:46:54.610Z,1010.04
2016-07-25T02:47:54.603Z,1010.03
2016-07-25T02:48:54.596Z,1010.03
2016-07-25T02:49:54.590Z,1010.05
2016-07-25T02:50:54.580Z,1010.04
2016-07-25T02:51:54.572Z,1010.04
2016-07-25T02:52:54.565Z,1010.05
2016-07-25T02:53:54.569Z,1010.07
2016-07-25T02:54:54.551Z,1010.04
2016-07-25T02:55:54.548Z,1010.06
2016-07-25T02:56:54.537Z,1010.04
2016-07-25T02:57:54.531Z,1010.01
2016-07-25T02:58:54.520Z,1010
2016-07-25T02:59:54.513Z,1010.01
2016-07-25T03:00:54.506Z,1010.03
2016-07-25T03:01:54.497Z,1010.01
2016-07-25T03:02:54.491Z,1010
2016-07-25T03:03:54.482Z,1010
2016-07-25T03:04:54.476Z,1010
2016-07-25T03:05:54.467Z,1010
2016-07-25T03:06:54.461Z,1009.98
2016-07-25T03:07:54.455Z,1009.98
2016-07-25T03:08:54.445Z,1009.97
2016-07-25T03:09:54.437Z,1010
2016-07-25T03:10:54.429Z,1010
2016-07-25T03:11:54.423Z,1009.99
2016-07-25T03:12:54.415Z,1010.01
2016-07-25T03:13:54.408Z,1010.04
2016-07-25T03:14:54.405Z,1010.03
2016-07-25T03:15:54.392Z,1010.06
2016-07-25T03:16:54.388Z,1010
2016-07-25T03:17:54.377Z,1010.03
2016-07-25T03:18:54.370Z,1010.01
2016-07-25T03:19:54.361Z,1010
2016-07-25T03:20:54.354Z,1009.97
2016-07-25T03:21:54.347Z,1009.99
2016-07-25T03:22:54.342Z,1009.99
2016-07-25T03:23:54.331Z,1010.03
2016-07-25T03:24:54.324Z,1010.02
2016-07-25T03:25:54.317Z,1010.04
2016-07-25T03:26:54.308Z,1010.03
2016-07-25T03:27:54.301Z,1010.05
2016-07-25T03:28:54.294Z,1010.04
2016-07-25T03:29:54.285Z,1010.04
2016-07-25T03:30:54.278Z,1010.06
2016-07-25T03:31:54.272Z,1010.04
2016-07-25T03:32:54.263Z,1010.04
2016-07-25T03:33:54.258Z,1010.05
2016-07-25T03:34:54.247Z,1010.08
2016-07-25T03:35:54.240Z,1010.04
2016-07-25T03:36:54.233Z,1010.05
2016-07-25T03:37:54.226Z,1010.06
2016-07-25T03:38:54.219Z,1010.09
2016-07-25T03:39:54.209Z,1010.07
2016-07-25T03:40:54.203Z,1010.07
2016-07-25T03:41:54.195Z,1010.02
2016-07-25T03:42:54.186Z,1010.08
2016-07-25T03:43:54.180Z,1010.07
2016-07-25T03:44:54.196Z,1010.05
2016-07-25T03:45:54.166Z,1010.02
2016-07-25T03:46:54.157Z,1010.02
2016-07-25T03:47:54.152Z,1010.06
2016-07-25T03:48:54.141Z,1010.04
2016-07-25T03:49:54.135Z,1010.04
2016-07-25T03:50:54.137Z,1010.02
2016-07-25T03:51:54.123Z,1010.01
2016-07-25T03:52:54.111Z,1010.03
2016-07-25T03:53:54.103Z,1010.09
2016-07-25T03:54:54.098Z,1010.06
2016-07-25T03:55:54.092Z,1010.1
2016-07-25T03:56:54.081Z,1010.1
2016-07-25T03:57:54.076Z,1010.04
2016-07-25T03:58:54.072Z,1010.06
2016-07-25T03:59:54.061Z,1010.07
2016-07-25T04:00:54.054Z,1010.06
2016-07-25T04:01:54.042Z,1010.12
2016-07-25T04:02:54.036Z,1010.14
2016-07-25T04:03:54.027Z,1010.17
2016-07-25T04:04:54.020Z,1010.18
2016-07-25T04:05:54.012Z,1010.15
2016-07-25T04:06:54.008Z,1010.18
2016-07-25T04:07:53.999Z,1010.13
2016-07-25T04:08:53.991Z,1010.16
2016-07-25T04:09:53.983Z,1010.14
2016-07-25T04:10:53.976Z,1010.2
2016-07-25T04:11:53.973Z,1010.22
2016-07-25T04:12:53.961Z,1010.22
2016-07-25T04:13:53.953Z,1010.22
2016-07-25T04:14:53.945Z,1010.26
2016-07-25T04:15:53.938Z,1010.24
2016-07-25T04:16:53.932Z,1010.24
2016-07-25T04:17:53.923Z,1010.27
2016-07-25T04:18:53.914Z,1010.29
2016-07-25T04:19:53.906Z,1010.31
2016-07-25T04:20:53.900Z,1010.32
2016-07-25T04:21:53.893Z,1010.32
2016-07-25T04:22:53.885Z,1010.31
2016-07-25T04:23:53.878Z,1010.31
2016-07-25T04:24:53.870Z,1010.31
2016-07-25T04:25:53.862Z,1010.32
2016-07-25T04:26:53.855Z,1010.32
2016-07-25T04:27:53.846Z,1010.32
2016-07-25T04:28:53.839Z,1010.35
2016-07-25T04:29:53.836Z,1010.34
2016-07-25T04:30:53.825Z,1010.34
2016-07-25T04:31:53.815Z,1010.31
2016-07-25T04:32:53.809Z,1010.3
2016-07-25T04:33:53.802Z,1010.31
2016-07-25T04:34:53.795Z,1010.27
2016-07-25T04:35:53.786Z,1010.3
2016-07-25T04:36:53.780Z,1010.28
2016-07-25T04:37:53.770Z,1010.28
2016-07-25T04:38:53.765Z,1010.27
2016-07-25T04:39:53.757Z,1010.29
2016-07-25T04:40:53.762Z,1010.28
2016-07-25T04:41:53.741Z,1010.28
2016-07-25T04:42:53.734Z,1010.29
2016-07-25T04:43:53.726Z,1010.28
2016-07-25T04:44:53.717Z,1010.26
2016-07-25T04:45:53.712Z,1010.28
2016-07-25T04:46:53.703Z,1010.27
2016-07-25T04:47:53.696Z,1010.29
2016-07-25T04:48:53.687Z,1010.28
2016-07-25T04:49:53.681Z,1010.29
2016-07-25T04:50:53.674Z,1010.34
2016-07-25T04:51:53.666Z,1010.3
2016-07-25T04:52:53.658Z,1010.28
2016-07-25T04:53:53.652Z,1010.33
2016-07-25T04:54:53.643Z,1010.34
2016-07-25T04:55:53.839Z,1010.3
2016-07-25T04:56:53.630Z,1010.34
2016-07-25T04:57:53.626Z,1010.35
2016-07-25T04:58:53.613Z,1010.33
2016-07-25T04:59:53.608Z,1010.36
2016-07-25T05:00:53.601Z,1010.32
2016-07-25T05:01:53.593Z,1010.38
2016-07-25T05:02:53.585Z,1010.35
2016-07-25T05:03:53.577Z,1010.34
2016-07-25T05:04:53.572Z,1010.34
2016-07-25T05:05:53.565Z,1010.36
2016-07-25T05:06:53.554Z,1010.35
2016-07-25T05:07:53.547Z,1010.37
2016-07-25T05:08:53.541Z,1010.36
2016-07-25T05:09:53.535Z,1010.42
2016-07-25T05:10:53.527Z,1010.41
2016-07-25T05:11:53.519Z,1010.41
2016-07-25T05:12:53.513Z,1010.41
2016-07-25T05:13:53.503Z,1010.39
2016-07-25T05:14:53.497Z,1010.41
2016-07-25T05:15:53.488Z,1010.43
2016-07-25T05:16:53.481Z,1010.45
2016-07-25T05:17:53.474Z,1010.48
2016-07-25T05:18:53.466Z,1010.43
2016-07-25T05:19:53.460Z,1010.46
2016-07-25T05:20:53.451Z,1010.43
2016-07-25T05:21:53.444Z,1010.46
2016-07-25T05:22:53.437Z,1010.45
2016-07-25T05:23:53.435Z,1010.48
2016-07-25T05:24:53.422Z,1010.46
2016-07-25T05:25:53.414Z,1010.46
2016-07-25T05:26:53.408Z,1010.45
2016-07-25T05:27:53.397Z,1010.43
2016-07-25T05:28:53.394Z,1010.41
2016-07-25T05:29:53.384Z,1010.45
2016-07-25T05:30:53.379Z,1010.45
2016-07-25T05:31:53.370Z,1010.43
2016-07-25T05:32:53.363Z,1010.48
2016-07-25T05:33:53.356Z,1010.47
2016-07-25T05:34:53.348Z,1010.47
2016-07-25T05:35:53.340Z,1010.49
2016-07-25T05:36:53.333Z,1010.51
2016-07-25T05:37:53.327Z,1010.48
2016-07-25T05:38:53.321Z,1010.51
2016-07-25T05:39:53.310Z,1010.49
2016-07-25T05:40:53.304Z,1010.51
2016-07-25T05:41:53.295Z,1010.5
2016-07-25T05:42:53.287Z,1010.49
2016-07-25T05:43:53.280Z,1010.48
2016-07-25T05:44:53.278Z,1010.54
2016-07-25T05:45:53.265Z,1010.49
2016-07-25T05:46:53.260Z,1010.54
2016-07-25T05:47:53.249Z,1010.5
2016-07-25T05:48:53.243Z,1010.52
2016-07-25T05:49:53.235Z,1010.52
2016-07-25T05:50:53.232Z,1010.53
2016-07-25T05:51:53.220Z,1010.53
2016-07-25T05:52:53.217Z,1010.53
2016-07-25T05:53:53.206Z,1010.53
2016-07-25T05:54:53.198Z,1010.53
2016-07-25T05:55:53.192Z,1010.54
2016-07-25T05:56:53.183Z,1010.52
2016-07-25T05:57:53.177Z,1010.56
2016-07-25T05:58:53.168Z,1010.55
2016-07-25T05:59:53.164Z,1010.53
2016-07-25T06:00:53.156Z,1010.6
2016-07-25T06:01:53.147Z,1010.57
2016-07-25T06:02:53.139Z,1010.55
2016-07-25T06:03:53.133Z,1010.55
2016-07-25T06:04:53.125Z,1010.56
2016-07-25T06:05:53.119Z,1010.58
2016-07-25T06:06:53.111Z,1010.54
2016-07-25T06:07:53.102Z,1010.56
2016-07-25T06:08:53.095Z,1010.55
2016-07-25T06:09:53.094Z,1010.59
2016-07-25T06:10:53.086Z,1010.56
2016-07-25T06:11:53.074Z,1010.58
2016-07-25T06:12:53.067Z,1010.58
2016-07-25T06:13:53.063Z,1010.59
2016-07-25T06:14:53.053Z,1010.6
2016-07-25T06:15:53.045Z,1010.6
2016-07-25T06:16:53.039Z,1010.57
2016-07-25T06:17:53.032Z,1010.6
2016-07-25T06:18:53.024Z,1010.61
2016-07-25T06:19:53.016Z,1010.6
2016-07-25T06:20:53.020Z,1010.62
2016-07-25T06:21:53.007Z,1010.6
2016-07-25T06:22:52.994Z,1010.62
2016-07-25T06:23:52.988Z,1010.65
2016-07-25T06:24:53.078Z,1010.63
2016-07-25T06:25:52.979Z,1010.7
2016-07-25T06:26:52.968Z,1010.66
2016-07-25T06:27:52.964Z,1010.69
2016-07-25T06:28:52.954Z,1010.68
2016-07-25T06:29:52.948Z,1010.72
2016-07-25T06:30:52.940Z,1010.71
2016-07-25T06:31:52.931Z,1010.74
2016-07-25T06:33:52.917Z,1010.74
2016-07-25T06:34:52.911Z,1010.7
2016-07-25T06:35:52.905Z,1010.75
2016-07-25T06:36:52.905Z,1010.73
2016-07-25T06:37:52.890Z,1010.73
2016-07-25T06:38:52.883Z,1010.67
2016-07-25T06:39:52.877Z,1010.75
2016-07-25T06:40:52.870Z,1010.73
2016-07-25T06:41:52.862Z,1010.72
2016-07-25T06:42:52.854Z,1010.74
2016-07-25T06:43:53.051Z,1010.74
2016-07-25T06:44:52.842Z,1010.74
2016-07-25T06:45:52.835Z,1010.8
2016-07-25T06:46:52.829Z,1010.76
2016-07-25T06:47:52.820Z,1010.79
2016-07-25T06:48:52.812Z,1010.8
2016-07-25T06:49:52.806Z,1010.78
2016-07-25T06:50:52.802Z,1010.77
2016-07-25T06:51:52.794Z,1010.78
2016-07-25T06:52:52.788Z,1010.79
2016-07-25T06:53:52.778Z,1010.79
2016-07-25T06:54:52.773Z,1010.77
2016-07-25T06:55:52.768Z,1010.76
2016-07-25T06:56:52.778Z,1010.78
2016-07-25T06:57:52.752Z,1010.7
2016-07-25T06:58:52.745Z,1010.71
2016-07-25T06:59:52.740Z,1010.78
2016-07-25T07:00:52.734Z,1010.76
2016-07-25T07:01:52.726Z,1010.77
2016-07-25T07:02:52.719Z,1010.76
2016-07-25T07:03:52.712Z,1010.75
2016-07-25T07:04:52.781Z,1010.8
2016-07-25T07:05:52.702Z,1010.77
2016-07-25T07:06:52.692Z,1010.74
2016-07-25T07:07:52.687Z,1010.76
2016-07-25T07:08:52.678Z,1010.74
2016-07-25T07:09:52.671Z,1010.72
2016-07-25T07:10:52.664Z,1010.83
2016-07-25T07:11:52.660Z,1010.76
2016-07-25T07:12:52.653Z,1010.71
2016-07-25T07:13:52.644Z,1010.69
2016-07-25T07:14:52.641Z,1010.69
2016-07-25T07:15:52.632Z,1010.7
2016-07-25T07:16:52.625Z,1010.71
2016-07-25T07:17:52.619Z,1010.72
2016-07-25T07:18:52.613Z,1010.72
2016-07-25T07:19:52.608Z,1010.7
2016-07-25T07:20:52.601Z,1010.72
2016-07-25T07:21:52.592Z,1010.74
2016-07-25T07:22:52.588Z,1010.7
2016-07-25T07:23:52.581Z,1010.72
2016-07-25T07:24:52.573Z,1010.72
2016-07-25T07:25:52.568Z,1010.71
2016-07-25T07:26:52.562Z,1010.71
2016-07-25T07:27:52.554Z,1010.71
2016-07-25T07:28:52.549Z,1010.68
2016-07-25T07:29:52.543Z,1010.68
2016-07-25T07:30:52.536Z,1010.7
2016-07-25T07:31:52.529Z,1010.74
2016-07-25T07:32:52.521Z,1010.74
2016-07-25T07:33:52.515Z,1010.76
2016-07-25T07:34:52.511Z,1010.8
2016-07-25T07:35:52.503Z,1010.76
2016-07-25T07:36:52.498Z,1010.77
2016-07-25T07:37:52.493Z,1010.74
2016-07-25T07:38:52.484Z,1010.81
2016-07-25T07:39:52.477Z,1010.8
2016-07-25T07:40:52.670Z,1010.82
2016-07-25T07:41:52.471Z,1010.78
2016-07-25T07:42:52.460Z,1010.79
2016-07-25T07:43:52.456Z,1010.83
2016-07-25T07:44:52.450Z,1010.79
2016-07-25T07:45:52.445Z,1010.76
2016-07-25T07:46:52.439Z,1010.78
2016-07-25T07:47:52.434Z,1010.81
2016-07-25T07:48:52.427Z,1010.79
2016-07-25T07:49:52.424Z,1010.81
2016-07-25T07:50:52.417Z,1010.76
2016-07-25T07:51:52.414Z,1010.79
2016-07-25T07:52:52.407Z,1010.74
2016-07-25T07:53:52.402Z,1010.79
2016-07-25T07:54:52.396Z,1010.78
2016-07-25T07:55:52.392Z,1010.75
2016-07-25T07:56:52.389Z,1010.8
2016-07-25T07:57:52.380Z,1010.76
2016-07-25T07:58:52.377Z,1010.81
2016-07-25T07:59:52.374Z,1010.8
2016-07-25T08:00:52.366Z,1010.76
2016-07-25T08:01:52.376Z,1010.75
2016-07-25T08:02:52.356Z,1010.76
2016-07-25T08:03:52.355Z,1010.8
2016-07-25T08:04:52.347Z,1010.78
2016-07-25T08:05:52.343Z,1010.76
2016-07-25T08:06:52.337Z,1010.77
2016-07-25T08:07:52.335Z,1010.85
2016-07-25T08:08:52.331Z,1010.79
2016-07-25T08:09:52.326Z,1010.83
2016-07-25T08:10:52.323Z,1010.8
2016-07-25T08:11:52.319Z,1010.88
2016-07-25T08:12:52.315Z,1010.85
2016-07-25T08:13:52.312Z,1010.86
2016-07-25T08:14:52.309Z,1010.94
2016-07-25T08:15:52.304Z,1010.87
2016-07-25T08:16:52.302Z,1010.87
2016-07-25T08:17:52.298Z,1010.84
2016-07-25T08:18:52.294Z,1010.82
2016-07-25T08:19:52.291Z,1010.81
2016-07-25T08:20:52.288Z,1010.82
2016-07-25T08:21:52.286Z,1010.8
2016-07-25T08:22:52.281Z,1010.81
2016-07-25T08:23:52.277Z,1010.84
2016-07-25T08:24:52.274Z,1010.85
2016-07-25T08:25:52.272Z,1010.82
2016-07-25T08:26:52.265Z,1010.79
2016-07-25T08:27:52.261Z,1010.77
2016-07-25T08:28:52.259Z,1010.81
2016-07-25T08:29:52.256Z,1010.81
2016-07-25T08:30:52.250Z,1010.79
2016-07-25T08:31:52.246Z,1010.8
2016-07-25T08:32:52.243Z,1010.8
2016-07-25T08:33:52.237Z,1010.83
2016-07-25T08:34:52.231Z,1010.85
2016-07-25T08:35:52.227Z,1010.81
2016-07-25T08:36:52.224Z,1010.82
2016-07-25T08:37:52.219Z,1010.8
2016-07-25T08:38:52.213Z,1010.81
2016-07-25T08:39:52.209Z,1010.82
2016-07-25T08:40:52.208Z,1010.82
2016-07-25T08:41:52.199Z,1010.82
2016-07-25T08:42:52.196Z,1010.85
2016-07-25T08:43:52.191Z,1010.85
2016-07-25T08:44:52.187Z,1010.82
2016-07-25T08:45:52.183Z,1010.82
2016-07-25T08:46:52.177Z,1010.85
2016-07-25T08:47:52.174Z,1010.86
2016-07-25T08:48:52.168Z,1010.84
2016-07-25T08:49:52.164Z,1010.84
2016-07-25T08:50:52.164Z,1010.83
2016-07-25T08:51:52.154Z,1010.82
2016-07-25T08:52:52.150Z,1010.83
2016-07-25T08:53:52.145Z,1010.83
2016-07-25T08:54:52.140Z,1010.82
2016-07-25T08:55:52.136Z,1010.78
2016-07-25T08:56:52.128Z,1010.78
2016-07-25T08:57:52.126Z,1010.83
2016-07-25T08:58:52.121Z,1010.83
2016-07-25T08:59:52.115Z,1010.86
2016-07-25T09:00:52.109Z,1010.83
2016-07-25T09:01:52.106Z,1010.84
2016-07-25T09:02:52.101Z,1010.85
2016-07-25T09:03:52.095Z,1010.84
2016-07-25T09:04:52.090Z,1010.85
2016-07-25T09:05:52.087Z,1010.82
2016-07-25T09:06:52.123Z,1010.85
2016-07-25T09:07:52.078Z,1010.83
2016-07-25T09:08:52.072Z,1010.86
2016-07-25T09:09:52.069Z,1010.84
2016-07-25T09:10:52.062Z,1010.82
2016-07-25T09:11:52.058Z,1010.81
2016-07-25T09:12:52.052Z,1010.8
2016-07-25T09:13:52.049Z,1010.74
2016-07-25T09:14:52.041Z,1010.77
2016-07-25T09:15:52.037Z,1010.71
2016-07-25T09:16:52.032Z,1010.79
2016-07-25T09:17:52.025Z,1010.83
2016-07-25T09:18:52.073Z,1010.79
2016-07-25T09:19:52.016Z,1010.72
2016-07-25T09:20:52.012Z,1010.71
2016-07-25T09:21:52.005Z,1010.79
2016-07-25T09:22:51.999Z,1010.92
2016-07-25T09:23:51.995Z,1011.01
2016-07-25T09:24:51.989Z,1010.94
2016-07-25T09:25:51.983Z,1010.84
2016-07-25T09:26:51.984Z,1010.85
2016-07-25T09:27:51.973Z,1010.83
2016-07-25T09:28:51.968Z,1010.84
2016-07-25T09:29:51.963Z,1010.95
2016-07-25T09:30:51.960Z,1010.9
2016-07-25T09:31:51.953Z,1010.94
2016-07-25T09:32:51.949Z,1010.97
2016-07-25T09:33:51.945Z,1010.86
2016-07-25T09:34:51.940Z,1010.9
2016-07-25T09:35:51.936Z,1010.84
2016-07-25T09:36:51.929Z,1010.84
2016-07-25T09:37:51.926Z,1010.86
2016-07-25T09:38:51.922Z,1010.84
2016-07-25T09:39:51.914Z,1010.81
2016-07-25T09:40:51.912Z,1010.79
2016-07-25T09:41:51.908Z,1010.81
2016-07-25T09:42:51.904Z,1010.75
2016-07-25T09:43:51.899Z,1010.79
2016-07-25T09:44:51.893Z,1010.92
2016-07-25T09:45:51.889Z,1010.87
2016-07-25T09:46:51.885Z,1010.88
2016-07-25T09:47:51.879Z,1010.83
2016-07-25T09:48:51.875Z,1010.8
2016-07-25T09:49:51.870Z,1010.83
2016-07-25T09:50:51.865Z,1010.82
2016-07-25T09:51:51.860Z,1010.82
2016-07-25T09:52:51.857Z,1010.79
2016-07-25T09:53:51.852Z,1010.73
2016-07-25T09:54:51.846Z,1010.8
2016-07-25T09:55:51.842Z,1010.71
2016-07-25T09:56:51.836Z,1010.7
2016-07-25T09:57:51.831Z,1010.71
2016-07-25T09:58:51.826Z,1010.78
2016-07-25T09:59:51.823Z,1010.69
2016-07-25T10:00:51.817Z,1010.67
2016-07-25T10:01:51.810Z,1010.72
2016-07-25T10:02:51.806Z,1010.73
2016-07-25T10:03:51.802Z,1010.75
2016-07-25T10:04:51.796Z,1010.75
2016-07-25T10:05:51.792Z,1010.71
2016-07-25T10:06:51.787Z,1010.68
2016-07-25T10:07:51.781Z,1010.65
2016-07-25T10:08:51.780Z,1010.74
2016-07-25T10:09:51.771Z,1010.7
2016-07-25T10:10:51.766Z,1010.78
2016-07-25T10:11:51.762Z,1010.83
2016-07-25T10:12:51.768Z,1010.7
2016-07-25T10:13:51.752Z,1010.66
2016-07-25T10:14:51.747Z,1010.63
2016-07-25T10:15:51.743Z,1010.67
2016-07-25T10:16:51.741Z,1010.64
2016-07-25T10:17:51.734Z,1010.68
2016-07-25T10:18:51.732Z,1010.69
2016-07-25T10:19:51.726Z,1010.64
2016-07-25T10:20:51.723Z,1010.74
2016-07-25T10:21:51.720Z,1010.78
2016-07-25T10:22:51.717Z,1010.78
2016-07-25T10:23:51.710Z,1010.71
2016-07-25T10:24:51.707Z,1010.84
2016-07-25T10:25:51.705Z,1010.75
2016-07-25T10:26:51.700Z,1010.71
2016-07-25T10:27:51.697Z,1010.83
2016-07-25T10:28:51.694Z,1010.77
2016-07-25T10:29:51.694Z,1010.81
2016-07-25T10:30:51.690Z,1010.78
2016-07-25T10:31:51.688Z,1010.88
2016-07-25T10:32:51.684Z,1010.88
2016-07-25T10:33:51.685Z,1010.88
2016-07-25T10:34:51.682Z,1010.83
2016-07-25T10:35:51.683Z,1010.86
2016-07-25T10:36:51.683Z,1010.77
2016-07-25T10:37:51.682Z,1010.92
2016-07-25T10:38:51.681Z,1010.92
2016-07-25T10:39:51.683Z,1010.76
2016-07-25T10:40:51.683Z,1010.68
2016-07-25T10:41:51.684Z,1010.67
2016-07-25T10:42:51.683Z,1010.71
2016-07-25T10:43:51.683Z,1010.72
2016-07-25T10:44:51.883Z,1010.92
2016-07-25T10:45:51.681Z,1010.94
2016-07-25T10:46:51.680Z,1010.91
2016-07-25T10:47:51.679Z,1011.02
2016-07-25T10:48:51.681Z,1010.95
2016-07-25T10:49:51.679Z,1010.97
2016-07-25T10:50:51.683Z,1010.94
2016-07-25T10:51:51.681Z,1010.96
2016-07-25T10:52:51.680Z,1010.94
2016-07-25T10:53:51.682Z,1010.9
2016-07-25T10:54:51.685Z,1010.81
2016-07-25T10:55:51.686Z,1010.86
2016-07-25T10:56:51.684Z,1010.89
2016-07-25T10:57:51.688Z,1010.86
2016-07-25T10:58:51.689Z,1010.92
2016-07-25T10:59:51.698Z,1010.95
2016-07-25T11:00:51.697Z,1010.89
2016-07-25T11:01:51.696Z,1010.88
2016-07-25T11:02:51.698Z,1010.78
2016-07-25T11:03:51.700Z,1010.85
2016-07-25T11:04:51.703Z,1010.75
2016-07-25T11:05:51.709Z,1010.78
2016-07-25T11:06:51.707Z,1010.75
2016-07-25T11:07:51.709Z,1010.7
2016-07-25T11:08:51.711Z,1010.76
2016-07-25T11:09:51.716Z,1010.76
2016-07-25T11:10:51.719Z,1010.71
2016-07-25T11:11:51.720Z,1010.78
2016-07-25T11:12:51.724Z,1010.77
2016-07-25T11:13:51.729Z,1010.73
2016-07-25T11:14:51.730Z,1010.72
2016-07-25T11:15:51.732Z,1010.69
2016-07-25T11:16:51.735Z,1010.73
2016-07-25T11:17:51.738Z,1010.68
2016-07-25T11:18:51.739Z,1010.72
2016-07-25T11:19:51.745Z,1010.78
2016-07-25T11:20:51.745Z,1010.65
2016-07-25T11:21:51.747Z,1010.73
2016-07-25T11:22:51.748Z,1010.78
2016-07-25T11:23:51.752Z,1010.71
2016-07-25T11:24:51.754Z,1010.72
2016-07-25T11:25:51.758Z,1010.77
2016-07-25T11:26:51.756Z,1010.74
2016-07-25T11:27:51.760Z,1010.75
2016-07-25T11:28:51.763Z,1010.71
2016-07-25T11:29:51.763Z,1010.71
2016-07-25T11:30:51.766Z,1010.68
2016-07-25T11:31:51.769Z,1010.7
2016-07-25T11:32:51.774Z,1010.72
2016-07-25T11:33:51.773Z,1010.67
2016-07-25T11:34:51.777Z,1010.62
2016-07-25T11:35:51.784Z,1010.59
2016-07-25T11:36:51.789Z,1010.56
2016-07-25T11:37:51.786Z,1010.59
2016-07-25T11:38:51.788Z,1010.57
2016-07-25T11:39:51.804Z,1010.61
2016-07-25T11:40:51.796Z,1010.56
2016-07-25T11:41:51.799Z,1010.52
2016-07-25T11:42:51.804Z,1010.54
2016-07-25T11:43:51.808Z,1010.56
2016-07-25T11:44:51.815Z,1010.53
2016-07-25T11:45:51.826Z,1010.53
2016-07-25T11:46:51.817Z,1010.6
2016-07-25T11:47:51.825Z,1010.68
2016-07-25T11:48:51.827Z,1010.53
2016-07-25T11:49:51.830Z,1010.58
2016-07-25T11:50:51.833Z,1010.59
2016-07-25T11:51:51.836Z,1010.58
2016-07-25T11:52:51.840Z,1010.52
2016-07-25T11:53:51.842Z,1010.52
2016-07-25T11:54:51.846Z,1010.59
2016-07-25T11:55:51.851Z,1010.52
2016-07-25T11:56:51.850Z,1010.56
2016-07-25T11:57:51.852Z,1010.62
2016-07-25T11:58:51.852Z,1010.63
2016-07-25T11:59:51.856Z,1010.6
2016-07-25T12:00:51.857Z,1010.6
2016-07-25T12:01:51.857Z,1010.61
2016-07-25T12:02:51.859Z,1010.63
2016-07-25T12:03:51.861Z,1010.58
2016-07-25T12:04:51.862Z,1010.6
2016-07-25T12:05:51.860Z,1010.62
2016-07-25T12:06:51.875Z,1010.61
2016-07-25T12:07:51.860Z,1010.63
2016-07-25T12:08:51.859Z,1010.58
2016-07-25T12:09:51.858Z,1010.6